Terminal Aerodrome Forecast
Issued by NWS

Home | Current Version | Previous Version | Text Only | Print | Product List | Glossary On
Versions: 1 2 3 4 5 6 7 8 9 10 11 12 13 14
000
FTUS44 KLIX 170522
TAFMSY
TAF
KMSY 170522Z 1706/1812 11010KT P6SM SCT015 BKN030 OVC070
      TEMPO 1706/1709 BKN015
     FM170900 13010KT P6SM VCSH BKN010 OVC050
     FM171500 17009KT 4SM SHRA BKN010 OVC045
     FM171800 18010KT 2SM SHRA BKN010 OVC020
     FM180000 16005KT P6SM BKN020 OVC060 PROB30 1800/1803 2SM SHRA
      OVC003
     FM180300 16005KT P6SM BKN008 OVC060 PROB30 1803/1806 1SM SHRA
      OVC003=

USA.gov is the U.S. government's official web portal to all federal, state and local government web resources and services.